• Join FlightAware (Why Join?)
  • Login
  • US Flag 
04:04AM EDT


 

Airport Tracker/Info


-or-


 

Live Flight TrackerFlight Track Log ✈ DAL930 ✈ 17-Apr-2013 ✈ KLGA - KFLL

Flight Track Log - Related Links

Times and Time Zones

All times are in EDT time to prevent confusion due to time zone crossing. See the DAL930 flight status page for this flight to view local times or setup timezone preferences in your user account.

Time Position Orientation Groundspeed Altitude Reporting Facility
EDT Latitude Longitude Course Direction KTS MPH feet Rate Location/Type
11:36AM 40.8147 -73.8722 201° Southwest 157 181 1,900  Level New York Center
11:37AM 40.8578 -73.8989 335° Northwest 241 277 4,000 2,820 Climbing New York Center
11:38AM 40.8242 -73.9822 242° Southwest 271 312 7,600 3,000 Climbing New York Center
11:39AM 40.3066 -74.0884 201° Southwest  Level FlightAware Approximate
11:39AM 40.7547 -74.0119 198° South 303 349 10,100  Level New York Center
11:40AM 40.1930 -74.1500 180° South  Level FlightAware Approximate
11:40AM 40.6619 -74.0486 197° South 377 434 11,600  Level New York Center
11:41AM 40.0796 -74.2068 194° South  Level FlightAware Approximate
11:41AM 40.5547 -74.0817 193° South 406 467 14,200  Level New York Center
11:42AM 39.9733 -74.2634 201° Southwest  Level FlightAware Approximate
11:42AM 40.4517 -74.1147 194° South 411 473 16,400  Level New York Center
11:43AM 40.3278 -74.1550 194° South 423 487 18,900 2,340 Climbing New York Center
11:44AM 40.2100 -74.1928 194° South 428 493 21,200 1,680 Climbing New York Center
11:45AM 40.1047 -74.2256 193° South 428 493 22,400 1,320 Climbing New York Center
11:46AM 39.9647 -74.2922 200° South 439 505 24,000 780 Climbing Washington Center
11:47AM 39.8658 -74.3858 216° Southwest 431 496 24,000 600 Level Washington Center
11:48AM 39.7750 -74.4900 221° Southwest 438 504 25,300 1,920 Climbing Washington Center
11:49AM 39.6906 -74.6019 226° Southwest 443 510 27,900 2,100 Climbing Washington Center
11:50AM 39.6061 -74.7136 226° Southwest 438 504 29,500 1,680 Climbing Washington Center
11:51AM 39.5256 -74.8222 226° Southwest 427 491 31,400 1,200 Climbing Washington Center
11:52AM 39.4428 -74.9250 224° Southwest 427 491 32,000 300 Climbing Washington Center
11:53AM 39.3328 -74.9906 205° Southwest 421 484 32,000  Level Washington Center
11:54AM 39.2206 -75.0503 202° Southwest 426 490 32,000  Level Washington Center
11:55AM 39.1103 -75.1075 202° Southwest 432 497 32,000  Level Washington Center
11:56AM 38.9981 -75.1697 203° Southwest 438 504 32,000  Level Washington Center
11:57AM 38.8856 -75.2289 202° Southwest 438 504 32,000  Level Washington Center
11:58AM 38.7733 -75.2881 202° Southwest 438 504 32,000  Level Washington Center
11:59AM 38.6586 -75.3444 201° Southwest 438 504 32,000  Level Washington Center
12:00PM 38.5461 -75.4033 202° Southwest 438 504 32,000  Level Washington Center
12:01PM 38.4358 -75.4644 203° Southwest 438 504 32,000  Level Washington Center
12:02PM 38.3233 -75.5256 203° Southwest 438 504 32,000  Level Washington Center
12:03PM 38.2064 -75.5706 197° South 438 504 32,000  Level Washington Center
12:04PM 38.0875 -75.6128 196° South 438 504 32,000  Level Washington Center
12:05PM 37.9856 -75.6525 197° South 439 505 32,000  Level Washington Center
12:06PM 37.8686 -75.6944 196° South 439 505 32,000  Level Washington Center
12:07PM 37.7517 -75.7364 196° South 439 505 32,000  Level Washington Center
12:08PM 37.6369 -75.7781 196° South 434 499 32,000  Level Washington Center
12:09PM 37.5200 -75.8222 197° South 439 505 32,000  Level Washington Center
12:10PM 37.4033 -75.8664 197° South 439 505 32,000 120 Level Washington Center
12:11PM 37.2842 -75.9128 197° South 439 505 32,300 720 Climbing Washington Center
12:12PM 37.1694 -75.9594 198° South 439 505 33,500 960 Climbing Washington Center
12:13PM 37.0483 -76.0056 197° South 444 511 34,300 900 Climbing Washington Center
12:14PM 36.9103 -76.0492 194° South 461 531 35,400 840 Climbing Washington Center
12:15PM 36.7914 -76.0925 196° South 461 531 36,000 300 Climbing Washington Center
12:16PM 36.6889 -76.1436 202° Southwest 449 517 36,000  Level Washington Center
12:17PM 36.5842 -76.2103 207° Southwest 435 501 36,000  Level Washington Center
12:18PM 36.4650 -76.2842 207° Southwest 430 495 36,000  Level Washington Center
12:19PM 36.3539 -76.3528 206° Southwest 435 501 36,000  Level Washington Center
12:20PM 36.2450 -76.4186 206° Southwest 435 501 36,000  Level Washington Center
12:21PM 36.1381 -76.4869 207° Southwest 435 501 36,000  Level Washington Center
12:22PM 36.0311 -76.5553 207° Southwest 429 494 36,000  Level Washington Center
12:23PM 35.9242 -76.6206 206° Southwest 429 494 36,000  Level Washington Center
12:24PM 35.8172 -76.6858 206° Southwest 429 494 36,000  Level Washington Center
12:25PM 35.7081 -76.7558 208° Southwest 429 494 36,000  Level Washington Center
12:26PM 35.6053 -76.8208 207° Southwest 429 494 36,000  Level Washington Center
12:27PM 35.5000 -76.8881 207° Southwest 422 486 36,000  Level Washington Center
12:28PM 35.3950 -76.9528 207° Southwest 427 491 36,000  Level Washington Center
12:29PM 35.2881 -77.0169 206° Southwest 434 499 36,000  Level Washington Center
12:30PM 35.1786 -77.0864 207° Southwest 434 499 36,000  Level Washington Center
12:31PM 35.0714 -77.1503 206° Southwest 428 493 36,000  Level Washington Center
12:32PM 34.9600 -77.2167 206° Southwest 433 498 36,000  Level Washington Center
12:33PM 34.8567 -77.2803 207° Southwest 428 493 36,000  Level Washington Center
12:34PM 34.7619 -77.3414 208° Southwest 428 493 36,000  Level Washington Center
12:35PM 34.6506 -77.4047 205° Southwest 428 493 36,000  Level Washington Center
12:36PM 34.5411 -77.4653 205° Southwest 428 493 36,000  Level Washington Center
12:38PM 34.3078 -77.5561 198° South 459 528 36,000  Level Jacksonville Center
12:39PM 34.1886 -77.6036 198° South 459 528 36,000  Level Jacksonville Center
12:40PM 34.0797 -77.6453 198° South 452 520 36,000  Level Jacksonville Center
12:41PM 33.9547 -77.6978 199° South 442 509 36,000  Level Jacksonville Center
12:42PM 33.8375 -77.7397 197° South 442 509 36,000  Level Jacksonville Center
12:43PM 33.7206 -77.7864 198° South 449 517 36,000  Level Jacksonville Center
12:44PM 33.6136 -77.8275 198° South 446 513 36,000  Level Jacksonville Center
12:45PM 33.4964 -77.8692 197° South 451 519 36,000  Level Jacksonville Center
12:46PM 33.3792 -77.9131 197° South 446 513 36,000  Level Jacksonville Center
12:47PM 33.2642 -77.9569 198° South 446 513 36,000  Level Jacksonville Center
12:48PM 33.1469 -78.0031 198° South 446 513 36,000  Level Jacksonville Center
12:49PM 33.0297 -78.0442 196° South 446 513 36,000  Level Jacksonville Center
12:50PM 32.9125 -78.0900 198° South 446 513 36,000  Level Jacksonville Center
12:51PM 32.7950 -78.1333 197° South 446 513 36,000  Level Jacksonville Center
12:52PM 32.6756 -78.1742 196° South 446 513 36,000  Level Jacksonville Center
12:53PM 32.5561 -78.2172 197° South 451 519 36,000  Level Jacksonville Center
12:54PM 32.4389 -78.2653 199° South 456 525 36,000  Level Jacksonville Center
12:55PM 32.3175 -78.3156 199° South 456 525 36,000  Level Jacksonville Center
12:56PM 32.1878 -78.3614 197° South 456 525 36,000  Level Jacksonville Center
12:57PM 32.0703 -78.4064 198° South 456 525 36,000  Level Jacksonville Center
12:58PM 31.9508 -78.4489 197° South 451 519 36,000  Level Jacksonville Center
12:59PM 31.8294 -78.4964 198° South 456 525 36,000  Level Jacksonville Center
01:00PM 31.7097 -78.5386 197° South 449 517 36,000  Level Jacksonville Center
01:01PM 31.5919 -78.5783 196° South 449 517 36,000  Level Jacksonville Center
01:02PM 31.4725 -78.6228 198° South 449 517 36,000  Level Jacksonville Center
01:03PM 31.3531 -78.6672 198° South 456 525 36,000  Level Jacksonville Center
01:04PM 31.2333 -78.7089 197° South 449 517 36,000  Level Jacksonville Center
01:05PM 31.1178 -78.7506 197° South 446 513 36,000  Level Jacksonville Center
01:06PM 30.9939 -78.7972 198° South 457 526 36,000  Level Jacksonville Center
01:07PM 30.8742 -78.8386 197° South 457 526 36,000  Level Jacksonville Center
01:08PM 30.7544 -78.8825 197° South 452 520 36,000  Level Jacksonville Center
01:10PM 30.5483 -78.9578 197° South 448 516 36,000  Level Miami Center
01:11PM 30.4269 -78.9986 196° South 448 516 36,000  Level Miami Center
01:12PM 30.2972 -79.0322 193° South 453 521 36,000  Level Miami Center
01:13PM 30.1778 -79.0633 193° South 453 521 36,000  Level Miami Center
01:14PM 30.0564 -79.0967 193° South 453 521 36,000  Level Miami Center
01:15PM 29.9642 -79.1331 199° South 448 516 36,000  Level Miami Center
01:16PM 29.8175 -79.1683 192° South 448 516 36,000  Level Miami Center
01:17PM 29.6942 -79.1942 190° South 448 516 36,000  Level Miami Center
01:18PM 29.5747 -79.2275 194° South 448 516 36,000  Level Miami Center
01:19PM 29.4636 -79.2681 198° South 442 509 36,000  Level Miami Center
01:20PM 29.3297 -79.2864 187° South 452 520 36,000  Level Miami Center
01:21PM 29.2103 -79.3172 193° South 452 520 36,000  Level Miami Center
01:22PM 29.0886 -79.3478 192° South 452 520 36,000  Level Miami Center
01:23PM 28.9653 -79.3758 191° South 452 520 36,000  Level Miami Center
01:24PM 28.8436 -79.4061 192° South 452 520 36,000  Level Miami Center
01:25PM 28.7200 -79.4364 192° South 452 520 36,000  Level Miami Center
01:26PM 28.5983 -79.4644 191° South 452 520 36,000  Level Miami Center
01:27PM 28.4747 -79.4944 192° South 452 520 36,000  Level Miami Center
01:28PM 28.3553 -79.5247 193° South 452 520 36,000 -240 Level Miami Center
01:29PM 28.2442 -79.5506 192° South 452 520 35,600 -780 Descending Miami Center
01:30PM 28.1203 -79.5806 192° South 452 520 34,500 -1,020 Descending Miami Center
01:31PM 27.9944 -79.6128 193° South 457 526 33,600 -1,020 Descending Miami Center
01:32PM 27.8603 -79.6447 192° South 457 526 32,500 -1,140 Descending Miami Center
01:33PM 27.7428 -79.6722 192° South 457 526 31,400 -1,380 Descending Miami Center
01:34PM 27.6022 -79.7064 192° South 467 537 29,800 -720 Descending Miami Center
01:35PM 27.4722 -79.7358 191° South 472 543 30,000 -1,200 Climbing Miami Center
01:36PM 27.3442 -79.7656 192° South 472 543 27,500 -2,700 Descending Miami Center
01:37PM 27.2275 -79.7531 175° South 458 527 24,600 -2,880 Descending Miami Center
01:38PM 27.1053 -79.7153 165° South 458 527 21,800 -2,940 Descending Miami Center
01:39PM 26.9744 -79.6747 165° South 453 521 18,800 -2,460 Descending Miami Center
01:40PM 26.8622 -79.6464 167° South 437 503 16,900 -2,100 Descending Miami Center
01:41PM 26.7592 -79.6833 198° South 405 466 14,600 -2,280 Descending Miami Center
01:42PM 26.6664 -79.7253 202° Southwest 396 456 12,400 -2,400 Descending Miami Center
01:43PM 26.5861 -79.7653 204° Southwest 372 428 10,600 -2,040 Descending Miami Center
01:43PM 26.5631 -79.7739 198° South 384 442 10,400 -660 Descending Miami Center
01:43PM 26.5122 -79.8028 207° Southwest 315 362 10,000 -840 Descending Miami Center
01:44PM 26.4914 -79.8092 195° South 341 392 9,600 -1,980 Descending Miami Center
01:44PM 26.4300 -79.8403 204° Southwest 302 348 8,000 -1,500 Descending Miami Center
01:45PM 26.4069 -79.8489 198° South 311 358 8,100 -600 Climbing Miami Center
01:45PM 26.3603 -79.8781 209° Southwest 283 326 7,400 -1,020 Descending Miami Center
01:46PM 26.3475 -79.8914 223° Southwest 292 336 7,100 -1,380 Descending Miami Center
01:47PM 26.3006 -79.9389 222° Southwest 278 320 6,000 -1,020 Descending Miami Center
01:47PM 26.2836 -79.9547 220° Southwest 282 325 6,100  Climbing Miami Center
01:48PM 26.2408 -79.9953 220° Southwest 276 318 6,000 -240 Descending Miami Center
01:48PM 26.2303 -80.0111 233° Southwest 277 319 5,900  Descending Miami Center
01:49PM 26.1811 -80.0539 218° Southwest 277 319 6,000  Climbing Miami Center
01:49PM 26.1767 -80.0700 253° West 277 319 5,900 -300 Descending Miami Center
01:50PM 26.1586 -80.1344 253° West 278 320 5,700 -600 Descending Miami Center
01:50PM 26.1561 -80.1550 262° West 272 313 5,300 -1,020 Descending Miami Center
01:51PM 26.1503 -80.2175 264° West 245 282 4,700 -840 Descending Miami Center
01:51PM 26.1542 -80.2314 287° West 254 292 4,500 -720 Descending Miami Center
01:52PM 26.1489 -80.2867 264° West 220 253 4,000 -840 Descending Miami Center
01:53PM 26.1203 -80.3439 241° Southwest 224 258 3,100 -900 Descending Miami Center